Time;durP1;ratioP1;P1;durP2;ratioP2;P2;SDS_P1;SDS_P2;PMS_P1;PMS_P2;Temp;Humidity;BMP_temperature;BMP_pressure;BME280_temperature;BME280_humidity;BME280_pressure;Samples;Min_cycle;Max_cycle;Signal;HPM_P1;HPM_P2
2023/02/01 00:01:43;;;;;;;;;;;;;;;0.00;100.00;99216.00;4936093;29;19968;-65
2023/02/01 00:04:09;;;;;;;;;;;;;;;0.03;100.00;99210.47;4936968;29;19914;-66
2023/02/01 00:06:37;;;;;;;;;;;;;;;0.01;100.00;99222.88;4935950;29;19941;-67
2023/02/01 00:09:02;;;;;;;;;;;;;;;-0.04;100.00;99222.41;4936209;29;19910;-66
2023/02/01 00:11:27;;;;;;;;;;;;;;;0.01;100.00;99225.50;4936403;29;19910;-67
2023/02/01 00:13:53;;;;;;;;;;;;;;;0.08;100.00;99223.16;4936210;29;19940;-66
2023/02/01 00:16:20;;;;;;;;;;;;;;;0.08;100.00;99224.00;4935955;29;19910;-68
2023/02/01 00:18:46;;;;;;;;;;;;;;;0.12;100.00;99224.56;4935608;29;19932;-68
2023/02/01 00:21:15;;;;;;;;;;;;;;;0.17;100.00;99225.78;4935678;29;19910;-68
2023/02/01 00:23:41;;;;;;;;;;;;;;;0.20;100.00;99228.16;4936042;29;20005;-66
2023/02/01 00:26:10;;;;;;;;;;;;;;;0.22;100.00;99226.22;4937734;29;19954;-66
2023/02/01 00:28:35;;;;;;;;;;;;;;;0.23;100.00;99230.50;4935757;29;19972;-66
2023/02/01 00:31:02;;;;;;;;;;;;;;;0.20;100.00;99233.38;4935567;29;19949;-66
2023/02/01 00:33:28;;;;;;;;;;;;;;;0.24;100.00;99231.31;4935388;29;19911;-67
2023/02/01 00:36:00;;;;;;;;;;;;;;;0.24;100.00;99236.56;4935669;29;20371;-66
2023/02/01 00:38:26;;;;;;;;;;;;;;;0.30;100.00;99236.88;4935571;29;19916;-67
2023/02/01 00:40:51;;;;;;;;;;;;;;;0.33;100.00;99241.00;4918299;29;19985;-65
2023/02/01 00:43:16;;;;;;;;;;;;;;;0.31;100.00;99235.09;4935306;29;19911;-66
2023/02/01 00:45:42;;;;;;;;;;;;;;;0.33;100.00;99245.41;4949227;29;19957;-66
2023/02/01 00:48:07;;;;;;;;;;;;;;;0.30;100.00;99247.34;4954497;29;20008;-65
2023/02/01 00:50:32;;;;;;;;;;;;;;;0.26;100.00;99253.78;4954437;29;20277;-66
2023/02/01 00:52:58;;;;;;;;;;;;;;;0.18;100.00;99253.63;4954544;29;19917;-66
2023/02/01 00:55:23;;;;;;;;;;;;;;;0.18;100.00;99255.44;4954577;29;20435;-66
2023/02/01 00:57:48;;;;;;;;;;;;;;;0.15;100.00;99264.38;4954296;29;19910;-68
2023/02/01 01:00:14;;;;;;;;;;;;;;;0.14;100.00;99265.34;4936958;29;19950;-66
2023/02/01 01:02:40;;;;;;;;;;;;;;;0.16;100.00;99263.41;4954373;29;20013;-65
2023/02/01 01:05:06;;;;;;;;;;;;;;;0.17;100.00;99265.06;4954330;29;20286;-65
2023/02/01 01:07:31;;;;;;;;;;;;;;;0.17;100.00;99265.06;4954459;29;19921;-66
2023/02/01 01:09:57;;;;;;;;;;;;;;;0.15;100.00;99264.38;4954228;29;20533;-67
2023/02/01 01:12:22;;;;;;;;;;;;;;;0.13;100.00;99268.09;4954448;29;19917;-67
2023/02/01 01:14:47;;;;;;;;;;;;;;;0.12;100.00;99267.25;4954105;29;19969;-65
2023/02/01 01:17:13;;;;;;;;;;;;;;;0.00;100.00;99265.72;4954068;29;20286;-67
2023/02/01 01:19:38;;;;;;;;;;;;;;;-0.02;100.00;99268.44;4954298;29;19960;-66
2023/02/01 01:22:03;;;;;;;;;;;;;;;0.05;100.00;99265.31;4954314;29;19949;-65
2023/02/01 01:24:29;;;;;;;;;;;;;;;0.10;100.00;99271.81;4954105;29;19914;-66
2023/02/01 01:26:54;;;;;;;;;;;;;;;0.10;100.00;99269.19;4954035;29;19911;-66
2023/02/01 01:29:19;;;;;;;;;;;;;;;0.05;100.00;99275.78;4954117;29;19921;-66
2023/02/01 01:31:44;;;;;;;;;;;;;;;-0.04;100.00;99272.16;4954122;29;19918;-67
2023/02/01 01:34:10;;;;;;;;;;;;;;;-0.03;100.00;99279.03;4954287;29;19921;-67
2023/02/01 01:36:35;;;;;;;;;;;;;;;-0.05;100.00;99271.31;4954112;29;20266;-66
2023/02/01 01:39:01;;;;;;;;;;;;;;;0.00;100.00;99276.19;4954008;29;19957;-67
2023/02/01 01:41:29;;;;;;;;;;;;;;;-0.06;100.00;99274.06;4954285;29;19964;-65
2023/02/01 01:43:58;;;;;;;;;;;;;;;-0.08;100.00;99273.38;4954197;29;20243;-65
2023/02/01 01:46:26;;;;;;;;;;;;;;;-0.04;100.00;99278.22;4954277;29;19950;-65
2023/02/01 01:49:11;;;;;;;;;;;;;;;-0.07;100.00;99281.09;4954681;29;20005;-67
2023/02/01 01:51:44;;;;;;;;;;;;;;;-0.13;100.00;99289.47;4955384;28;19926;-66
2023/02/01 01:54:25;;;;;;;;;;;;;;;-0.11;100.00;99286.72;4958117;29;19915;-66
2023/02/01 01:56:53;;;;;;;;;;;;;;;-0.10;100.00;99293.63;4958455;29;20021;-65
2023/02/01 01:59:20;;;;;;;;;;;;;;;-0.14;100.00;99289.59;4957907;29;20377;-67
2023/02/01 02:01:46;;;;;;;;;;;;;;;-0.18;100.00;99294.28;4957688;29;19950;-65
2023/02/01 02:04:11;;;;;;;;;;;;;;;-0.20;100.00;99292.75;4957579;29;19946;-66
2023/02/01 02:06:41;;;;;;;;;;;;;;;-0.16;100.00;99297.59;4957324;29;20020;-66
2023/02/01 02:09:07;;;;;;;;;;;;;;;-0.10;100.00;99301.47;4957281;29;19914;-66
2023/02/01 02:11:33;;;;;;;;;;;;;;;-0.09;100.00;99301.31;4958019;29;20334;-67
2023/02/01 02:13:58;;;;;;;;;;;;;;;-0.15;100.00;99301.03;4958066;29;19910;-65
2023/02/01 02:16:29;;;;;;;;;;;;;;;-0.12;100.00;99306.00;4956297;29;19910;-67
2023/02/01 02:19:03;;;;;;;;;;;;;;;-0.09;100.00;99309.19;4957335;29;19961;-66
2023/02/01 02:21:47;;;;;;;;;;;;;;;0.01;100.00;99301.41;4956905;29;20382;-65
2023/02/01 02:24:33;;;;;;;;;;;;;;;0.03;100.00;99307.31;4957239;29;19910;-66
2023/02/01 02:27:26;;;;;;;;;;;;;;;0.02;100.00;99305.66;4955975;29;19965;-66
2023/02/01 02:29:54;;;;;;;;;;;;;;;0.04;100.00;99316.84;4956597;29;19992;-66
2023/02/01 02:32:32;;;;;;;;;;;;;;;-0.01;100.00;99313.75;4955965;29;19917;-67
2023/02/01 02:35:13;;;;;;;;;;;;;;;-0.01;100.00;99313.75;4955972;29;19938;-65
2023/02/01 02:37:38;;;;;;;;;;;;;;;0.01;100.00;99316.28;4956103;29;19933;-66
2023/02/01 02:40:06;;;;;;;;;;;;;;;0.01;100.00;99317.09;4957081;29;20338;-67
2023/02/01 02:48:23;;;;;;;;;;;;;;;0.05;100.00;99323.72;4957667;29;19973;-66
2023/02/01 03:04:57;;;;;;;;;;;;;;;0.07;100.00;99329.66;4955093;28;19910;-66
2023/02/01 03:07:41;;;;;;;;;;;;;;;0.06;100.00;99328.00;4956239;29;19956;-66
2023/02/01 03:10:09;;;;;;;;;;;;;;;-0.01;100.00;99321.59;4939267;29;19914;-66
2023/02/01 03:12:56;;;;;;;;;;;;;;;-0.14;100.00;99326.25;4957707;29;19911;-66
2023/02/01 03:15:26;;;;;;;;;;;;;;;-0.22;100.00;99331.28;4956495;29;19910;-65
2023/02/01 03:17:55;;;;;;;;;;;;;;;-0.23;100.00;99334.88;4955951;29;20351;-66
2023/02/01 03:20:22;;;;;;;;;;;;;;;-0.18;100.00;99337.94;4956036;29;20010;-66
2023/02/01 03:22:49;;;;;;;;;;;;;;;-0.11;100.00;99339.06;4956208;29;19911;-65
2023/02/01 03:25:18;;;;;;;;;;;;;;;-0.02;100.00;99338.28;4956072;29;20394;-66
2023/02/01 03:27:50;;;;;;;;;;;;;;;0.06;100.00;99333.22;4955908;29;20053;-66
2023/02/01 03:30:17;;;;;;;;;;;;;;;0.13;100.00;99336.16;4955899;29;20370;-67
2023/02/01 03:32:58;;;;;;;;;;;;;;;0.09;100.00;99345.22;4955910;29;19911;-68
2023/02/01 03:35:42;;;;;;;;;;;;;;;0.06;100.00;99342.88;4955733;29;19916;-65
2023/02/01 03:38:13;;;;;;;;;;;;;;;0.02;100.00;99347.53;4955883;29;19910;-67
2023/02/01 03:40:41;;;;;;;;;;;;;;;-0.02;100.00;99348.75;4955713;29;20001;-65
2023/02/01 03:43:10;;;;;;;;;;;;;;;0.00;100.00;99344.22;4955542;29;19911;-66
2023/02/01 03:45:40;;;;;;;;;;;;;;;-0.01;100.00;99350.41;4956052;29;20301;-66
2023/02/01 03:48:06;;;;;;;;;;;;;;;0.04;100.00;99350.88;4955912;29;19957;-65
2023/02/01 03:50:33;;;;;;;;;;;;;;;0.09;100.00;99347.84;4955860;29;19910;-65
2023/02/01 03:53:01;;;;;;;;;;;;;;;0.09;100.00;99353.09;4938265;29;19918;-66
2023/02/01 03:55:28;;;;;;;;;;;;;;;0.06;100.00;99351.56;4955188;29;20044;-65
2023/02/01 03:57:58;;;;;;;;;;;;;;;0.05;100.00;99365.59;4955337;29;19911;-66
2023/02/01 04:00:25;;;;;;;;;;;;;;;0.07;100.00;99361.06;4955415;29;19914;-66
2023/02/01 04:02:51;;;;;;;;;;;;;;;0.10;100.00;99358.19;4955215;29;19973;-65
2023/02/01 04:05:17;;;;;;;;;;;;;;;0.12;100.00;99360.69;4955243;29;19945;-67
2023/02/01 04:07:42;;;;;;;;;;;;;;;0.05;100.00;99364.78;4955598;29;20421;-67
2023/02/01 04:10:12;;;;;;;;;;;;;;;0.01;100.00;99368.63;4955085;29;19959;-65
2023/02/01 04:12:38;;;;;;;;;;;;;;;-0.01;100.00;99368.72;4955217;29;20487;-66
2023/02/01 04:15:04;;;;;;;;;;;;;;;-0.02;100.00;99369.69;4955252;28;20369;-67
2023/02/01 04:17:29;;;;;;;;;;;;;;;0.02;100.00;99376.34;4955384;29;19946;-66
2023/02/01 04:19:54;;;;;;;;;;;;;;;0.04;100.00;99374.41;4954907;29;19910;-67
2023/02/01 04:22:20;;;;;;;;;;;;;;;0.03;100.00;99380.63;4956659;29;20013;-68
2023/02/01 04:24:45;;;;;;;;;;;;;;;0.05;100.00;99385.72;4958282;29;19910;-70
2023/02/01 04:27:10;;;;;;;;;;;;;;;0.10;100.00;99392.22;4955156;29;19924;-70
2023/02/01 04:29:36;;;;;;;;;;;;;;;0.15;100.00;99392.66;4954999;29;20310;-71
2023/02/01 04:32:01;;;;;;;;;;;;;;;0.19;100.00;99396.66;4954758;29;19910;-68
2023/02/01 04:34:26;;;;;;;;;;;;;;;0.17;100.00;99395.97;4954827;29;19911;-68
2023/02/01 04:36:52;;;;;;;;;;;;;;;0.11;100.00;99404.34;4954466;29;19949;-66
2023/02/01 04:39:17;;;;;;;;;;;;;;;0.02;100.00;99402.50;4954594;29;19978;-67
2023/02/01 04:41:42;;;;;;;;;;;;;;;-0.02;100.00;99411.56;4954488;29;19950;-67
2023/02/01 04:44:13;;;;;;;;;;;;;;;0.01;100.00;99413.13;4936901;29;19992;-68
2023/02/01 04:46:38;;;;;;;;;;;;;;;0.06;100.00;99414.38;4926584;29;20014;-70
2023/02/01 04:49:03;;;;;;;;;;;;;;;0.07;100.00;99421.28;4916359;29;20067;-67
2023/02/01 04:51:30;;;;;;;;;;;;;;;0.07;100.00;99416.03;4923209;29;19922;-67
2023/02/01 04:53:55;;;;;;;;;;;;;;;0.02;100.00;99422.63;4935109;29;19915;-67
2023/02/01 04:56:21;;;;;;;;;;;;;;;-0.03;100.00;99431.66;4932223;29;20318;-67
2023/02/01 04:58:47;;;;;;;;;;;;;;;-0.02;100.00;99428.09;4934884;29;19915;-64
2023/02/01 05:01:13;;;;;;;;;;;;;;;0.01;100.00;99431.44;4934672;29;20247;-65
2023/02/01 05:03:38;;;;;;;;;;;;;;;-0.02;100.00;99438.56;4934606;29;19921;-66
2023/02/01 05:06:04;;;;;;;;;;;;;;;-0.04;100.00;99439.63;4934682;29;19911;-66
2023/02/01 05:08:30;;;;;;;;;;;;;;;-0.08;100.00;99433.00;4917897;29;20395;-64
2023/02/01 05:10:57;;;;;;;;;;;;;;;-0.09;100.00;99437.41;4935385;29;20426;-65
2023/02/01 05:16:06;;;;;;;;;;;;;;;-0.08;100.00;99433.00;4916636;29;19922;-66
2023/02/01 05:18:31;;;;;;;;;;;;;;;-0.13;100.00;99438.63;4934594;29;19922;-65
2023/02/01 05:20:56;;;;;;;;;;;;;;;-0.16;100.00;99435.44;4931596;29;19974;-66
2023/02/01 05:23:22;;;;;;;;;;;;;;;-0.15;100.00;99442.31;4935412;29;19973;-66
2023/02/01 05:25:47;;;;;;;;;;;;;;;-0.11;100.00;99441.13;4934486;29;19910;-69
2023/02/01 05:28:12;;;;;;;;;;;;;;;-0.10;100.00;99445.38;4935225;29;19911;-70
2023/02/01 05:30:38;;;;;;;;;;;;;;;-0.08;100.00;99446.09;4937311;29;19957;-71
2023/02/01 05:33:03;;;;;;;;;;;;;;;-0.04;100.00;99450.94;4938398;29;19911;-65
2023/02/01 05:35:29;;;;;;;;;;;;;;;-0.04;100.00;99442.25;4937612;29;20414;-65
2023/02/01 05:37:54;;;;;;;;;;;;;;;-0.04;100.00;99455.34;4937859;29;19958;-68
2023/02/01 05:40:20;;;;;;;;;;;;;;;-0.05;100.00;99454.50;4937843;29;19961;-69
2023/02/01 05:42:45;;;;;;;;;;;;;;;-0.03;100.00;99455.22;4938759;29;19911;-67
2023/02/01 05:45:10;;;;;;;;;;;;;;;-0.04;100.00;99455.34;4938732;29;19915;-68
2023/02/01 05:47:36;;;;;;;;;;;;;;;-0.13;100.00;99456.13;4938610;29;19910;-66
2023/02/01 05:50:01;;;;;;;;;;;;;;;-0.26;100.00;99460.72;4937843;29;19954;-68
2023/02/01 05:52:28;;;;;;;;;;;;;;;-0.43;100.00;99465.50;4938820;29;19915;-69
2023/02/01 05:54:53;;;;;;;;;;;;;;;-0.52;100.00;99473.28;4939915;29;19910;-69
2023/02/01 05:57:18;;;;;;;;;;;;;;;-0.60;100.00;99471.25;4938153;29;19958;-67
2023/02/01 05:59:45;;;;;;;;;;;;;;;-0.64;100.00;99480.31;4937886;29;19957;-68
2023/02/01 06:02:13;;;;;;;;;;;;;;;-0.68;100.00;99481.50;4937423;29;19934;-69
2023/02/01 06:04:39;;;;;;;;;;;;;;;-0.72;100.00;99486.16;4937969;29;19917;-68
2023/02/01 06:07:05;;;;;;;;;;;;;;;-0.74;100.00;99488.06;4938186;29;19911;-69
2023/02/01 06:09:30;;;;;;;;;;;;;;;-0.78;100.00;99481.41;4938235;29;19915;-70
2023/02/01 06:11:56;;;;;;;;;;;;;;;-0.80;100.00;99488.56;4938227;29;19914;-68
2023/02/01 06:14:21;;;;;;;;;;;;;;;-0.81;100.00;99486.91;4938857;29;19954;-66
2023/02/01 06:16:47;;;;;;;;;;;;;;;-0.81;100.00;99492.13;4937983;29;19910;-69
2023/02/01 06:19:12;;;;;;;;;;;;;;;-0.82;100.00;99490.47;4921012;29;19911;-67
2023/02/01 06:21:37;;;;;;;;;;;;;;;-0.82;100.00;99495.69;4937900;29;19910;-68
2023/02/01 06:24:03;;;;;;;;;;;;;;;-0.80;100.00;99492.97;4937976;29;19910;-70
2023/02/01 06:26:29;;;;;;;;;;;;;;;-0.75;100.00;99493.41;4920937;29;20038;-69
2023/02/01 06:28:55;;;;;;;;;;;;;;;-0.77;100.00;99495.31;4937952;29;19917;-70
2023/02/01 06:31:20;;;;;;;;;;;;;;;-0.77;100.00;99497.94;4937648;29;20366;-70
2023/02/01 06:33:47;;;;;;;;;;;;;;;-0.82;100.00;99500.09;4920445;29;19911;-67
2023/02/01 06:36:12;;;;;;;;;;;;;;;-0.84;100.00;99494.16;4920639;29;20270;-69
2023/02/01 06:38:38;;;;;;;;;;;;;;;-0.86;100.00;99493.44;4920618;29;20009;-69
2023/02/01 06:41:04;;;;;;;;;;;;;;;-0.87;100.00;99495.19;4937624;29;19910;-69
2023/02/01 06:43:30;;;;;;;;;;;;;;;-0.89;100.00;99501.50;4920410;29;19914;-70
2023/02/01 06:46:03;;;;;;;;;;;;;;;-0.93;100.00;99504.34;4905799;29;20041;-70
2023/02/01 06:48:28;;;;;;;;;;;;;;;-0.91;100.00;99517.31;4937263;29;19911;-68
2023/02/01 06:50:54;;;;;;;;;;;;;;;-0.88;100.00;99516.22;4937582;29;20374;-70
2023/02/01 06:53:19;;;;;;;;;;;;;;;-0.82;100.00;99515.78;4938380;29;19958;-69
2023/02/01 06:55:58;;;;;;;;;;;;;;;-0.78;100.00;99518.03;4939162;29;20347;-69
2023/02/01 06:58:29;;;;;;;;;;;;;;;-0.74;100.00;99523.84;4943776;29;19949;-69
2023/02/01 07:00:56;;;;;;;;;;;;;;;-0.71;100.00;99521.81;4946348;29;20352;-73
2023/02/01 07:03:21;;;;;;;;;;;;;;;-0.67;100.00;99517.16;4942047;29;19911;-69
2023/02/01 07:05:46;;;;;;;;;;;;;;;-0.63;100.00;99514.19;4938624;29;19910;-69
2023/02/01 07:08:12;;;;;;;;;;;;;;;-0.61;99.56;99519.28;4941436;29;20278;-69
2023/02/01 07:10:38;;;;;;;;;;;;;;;-0.60;98.42;99531.41;4944002;29;20311;-68
2023/02/01 07:13:04;;;;;;;;;;;;;;;-0.52;98.82;99529.03;4930182;29;19915;-66
2023/02/01 07:15:30;;;;;;;;;;;;;;;-0.42;98.68;99535.19;4931949;29;19958;-69
2023/02/01 07:17:56;;;;;;;;;;;;;;;-0.34;97.68;99531.94;4949945;29;19910;-76
2023/02/01 07:20:22;;;;;;;;;;;;;;;-0.28;97.01;99531.47;4911120;29;20280;-67
2023/02/01 07:22:47;;;;;;;;;;;;;;;-0.19;97.38;99533.34;4939086;29;19918;-66
2023/02/01 07:25:13;;;;;;;;;;;;;;;-0.11;96.15;99538.78;4937420;29;19911;-66
2023/02/01 07:27:38;;;;;;;;;;;;;;;0.02;96.46;99546.47;4920850;29;19917;-65
2023/02/01 07:30:04;;;;;;;;;;;;;;;0.07;94.90;99540.84;4923809;29;19910;-65
2023/02/01 07:32:30;;;;;;;;;;;;;;;0.11;94.73;99539.66;4941900;29;20009;-68
2023/02/01 07:34:56;;;;;;;;;;;;;;;0.17;95.00;99542.59;4938227;29;20005;-66
2023/02/01 07:37:21;;;;;;;;;;;;;;;0.32;96.40;99552.75;4949455;29;19911;-67
2023/02/01 07:39:46;;;;;;;;;;;;;;;0.42;95.17;99551.03;4962253;29;19910;-67
2023/02/01 07:42:12;;;;;;;;;;;;;;;0.35;93.37;99560.38;4944519;29;19934;-69
2023/02/01 07:44:37;;;;;;;;;;;;;;;0.24;92.98;99558.63;4958135;29;19910;-66
2023/02/01 07:47:03;;;;;;;;;;;;;;;0.23;93.25;99555.16;4927341;29;19937;-64
2023/02/01 07:49:28;;;;;;;;;;;;;;;0.19;92.35;99566.03;4957944;29;19914;-66
2023/02/01 07:52:00;;;;;;;;;;;;;;;0.19;91.88;99561.63;4950750;28;19911;-67
2023/02/01 07:58:37;;;;;;;;;;;;;;;0.30;91.72;99566.00;4862435;29;19916;-68
2023/02/01 08:01:27;;;;;;;;;;;;;;;0.39;91.45;99577.47;4835207;29;20419;-69
2023/02/01 08:03:55;;;;;;;;;;;;;;;0.48;91.38;99576.72;4840998;29;19917;-68
2023/02/01 08:06:21;;;;;;;;;;;;;;;0.45;90.16;99576.97;4841574;29;19917;-68
2023/02/01 08:08:57;;;;;;;;;;;;;;;0.42;89.33;99575.44;4904194;29;19966;-68
2023/02/01 08:11:23;;;;;;;;;;;;;;;0.43;89.71;99584.97;4883306;29;19911;-68
2023/02/01 08:13:55;;;;;;;;;;;;;;;0.49;90.29;99589.69;4916484;29;19930;-68
2023/02/01 08:16:21;;;;;;;;;;;;;;;0.55;88.96;99589.16;4896225;29;19910;-66
2023/02/01 08:18:46;;;;;;;;;;;;;;;0.57;88.75;99587.25;4921893;29;19917;-70
2023/02/01 08:21:13;;;;;;;;;;;;;;;0.61;89.47;99582.63;4916161;29;19918;-69
2023/02/01 08:23:40;;;;;;;;;;;;;;;0.57;88.21;99592.50;4908887;29;19911;-68
2023/02/01 08:26:08;;;;;;;;;;;;;;;0.48;87.19;99581.94;4905336;29;19997;-69
2023/02/01 08:28:33;;;;;;;;;;;;;;;0.50;87.66;99590.50;4929735;29;19911;-69
2023/02/01 08:31:06;;;;;;;;;;;;;;;0.52;88.23;99593.84;4929709;29;19911;-70
2023/02/01 08:33:31;;;;;;;;;;;;;;;0.49;87.95;99596.72;4921879;29;19926;-69
2023/02/01 08:36:00;;;;;;;;;;;;;;;0.46;86.69;99597.81;4916537;29;19911;-71
2023/02/01 08:38:36;;;;;;;;;;;;;;;0.53;87.87;99600.72;4917395;29;19936;-69
2023/02/01 08:41:06;;;;;;;;;;;;;;;0.58;87.23;99598.59;4906252;29;19915;-71
2023/02/01 08:43:31;;;;;;;;;;;;;;;0.52;86.25;99604.31;4936539;29;19914;-71
2023/02/01 08:45:57;;;;;;;;;;;;;;;0.48;86.04;99598.50;4938410;29;19903;-70
2023/02/01 08:48:24;;;;;;;;;;;;;;;0.50;86.38;99596.59;4902006;29;19915;-71
2023/02/01 08:50:50;;;;;;;;;;;;;;;0.55;87.19;99593.56;4902742;29;19911;-70
2023/02/01 08:53:15;;;;;;;;;;;;;;;0.53;85.95;99596.31;4898142;29;19967;-68
2023/02/01 08:55:45;;;;;;;;;;;;;;;0.49;85.79;99600.16;4925457;29;19905;-71
2023/02/01 08:58:11;;;;;;;;;;;;;;;0.51;86.87;99600.88;4907972;29;19922;-71
2023/02/01 09:00:39;;;;;;;;;;;;;;;0.52;87.09;99601.69;4939809;29;19903;-69
2023/02/01 09:03:04;;;;;;;;;;;;;;;0.56;87.37;99605.72;4940728;29;20010;-70
2023/02/01 09:05:29;;;;;;;;;;;;;;;0.62;87.56;99600.00;4941279;29;19957;-70
2023/02/01 09:07:55;;;;;;;;;;;;;;;0.70;87.98;99601.97;4913020;29;19966;-72
2023/02/01 09:10:20;;;;;;;;;;;;;;;0.73;88.23;99612.19;4930199;29;19938;-72
2023/02/01 09:16:14;;;;;;;;;;;;;;;0.64;89.59;99598.06;4929494;29;19922;-75
2023/02/01 09:18:39;;;;;;;;;;;;;;;0.70;89.55;99608.03;4935598;29;19934;-77
2023/02/01 09:21:06;;;;;;;;;;;;;;;0.72;88.70;99605.28;4936835;29;19910;-79
2023/02/01 09:23:31;;;;;;;;;;;;;;;0.76;88.70;99606.69;4935416;29;19922;-75
2023/02/01 09:26:04;;;;;;;;;;;;;;;0.74;88.29;99604.19;4935139;29;19922;-75
2023/02/01 09:34:56;;;;;;;;;;;;;;;0.86;88.58;99618.06;4937361;29;19965;-76
2023/02/01 09:37:22;;;;;;;;;;;;;;;0.83;87.84;99616.53;4937869;29;19911;-80
2023/02/01 09:39:47;;;;;;;;;;;;;;;0.75;86.32;99611.09;4940279;29;19918;-74
2023/02/01 09:42:31;;;;;;;;;;;;;;;0.74;87.16;99614.69;4919423;29;19954;-75
2023/02/01 09:44:59;;;;;;;;;;;;;;;0.79;87.03;99612.50;4937108;29;19911;-74
2023/02/01 09:47:27;;;;;;;;;;;;;;;0.79;86.25;99616.91;4919641;29;19911;-77
2023/02/01 09:49:59;;;;;;;;;;;;;;;0.74;86.18;99614.69;4916992;29;19958;-73
2023/02/01 09:52:34;;;;;;;;;;;;;;;0.66;84.70;99614.50;4936257;29;19918;-78
2023/02/01 09:55:20;;;;;;;;;;;;;;;0.63;83.91;99614.75;4903424;29;19917;-76
2023/02/01 09:57:56;;;;;;;;;;;;;;;0.56;84.01;99616.19;4936837;29;19934;-74
2023/02/01 10:00:29;;;;;;;;;;;;;;;0.56;85.07;99624.06;4915949;29;19919;-71
2023/02/01 10:02:55;;;;;;;;;;;;;;;0.56;86.13;99616.19;4917713;29;19950;-70
2023/02/01 10:05:36;;;;;;;;;;;;;;;0.57;86.96;99618.69;4917461;29;20026;-69
2023/02/01 10:08:09;;;;;;;;;;;;;;;0.64;86.80;99621.66;4927058;29;19915;-73
2023/02/01 10:10:45;;;;;;;;;;;;;;;0.69;87.58;99616.84;4899830;29;19918;-71
2023/02/01 10:13:23;;;;;;;;;;;;;;;0.78;88.28;99616.09;4900952;29;20379;-70
2023/02/01 10:15:48;;;;;;;;;;;;;;;0.89;88.88;99618.66;4920730;29;20278;-72
2023/02/01 10:18:55;;;;;;;;;;;;;;;0.95;87.90;99612.06;4920891;29;20371;-71
2023/02/01 10:21:30;;;;;;;;;;;;;;;0.85;85.69;99611.16;4920804;29;19922;-69
2023/02/01 10:24:01;;;;;;;;;;;;;;;0.73;83.52;99613.03;4920821;29;19919;-69
2023/02/01 10:26:30;;;;;;;;;;;;;;;0.69;85.10;99616.84;4933232;29;20348;-71
2023/02/01 10:28:58;;;;;;;;;;;;;;;0.71;85.44;99614.94;4922173;29;19957;-72
2023/02/01 10:31:25;;;;;;;;;;;;;;;0.70;84.74;99618.53;4920025;29;19917;-73
2023/02/01 10:34:00;;;;;;;;;;;;;;;0.66;84.57;99614.50;4945727;29;19911;-73
2023/02/01 10:36:32;;;;;;;;;;;;;;;0.64;84.93;99608.56;4941624;29;19917;-72
2023/02/01 10:38:58;;;;;;;;;;;;;;;0.60;85.44;99620.25;4958397;29;20367;-71
2023/02/01 10:41:25;;;;;;;;;;;;;;;0.67;86.00;99618.78;4959695;29;19911;-69
2023/02/01 10:44:00;;;;;;;;;;;;;;;0.70;86.58;99617.69;4940669;29;19910;-72
2023/02/01 10:46:26;;;;;;;;;;;;;;;0.72;86.81;99627.09;4957699;29;19978;-71
2023/02/01 10:48:55;;;;;;;;;;;;;;;0.72;87.17;99629.69;4959880;29;19915;-73
2023/02/01 10:51:20;;;;;;;;;;;;;;;0.70;86.42;99634.25;4958053;29;19948;-71
2023/02/01 10:53:52;;;;;;;;;;;;;;;0.74;86.54;99629.56;4957226;29;20351;-72
2023/02/01 10:56:22;;;;;;;;;;;;;;;0.74;86.47;99624.34;4957625;29;20016;-72
2023/02/01 10:58:47;;;;;;;;;;;;;;;0.70;86.36;99623.75;4958524;29;19910;-75
2023/02/01 11:01:18;;;;;;;;;;;;;;;0.72;85.71;99628.88;4957092;29;19921;-73
2023/02/01 11:03:46;;;;;;;;;;;;;;;0.68;84.92;99623.06;4959064;29;20476;-74
2023/02/01 11:06:17;;;;;;;;;;;;;;;0.68;85.91;99627.47;4958300;29;19914;-72
2023/02/01 11:08:48;;;;;;;;;;;;;;;0.68;85.44;99624.84;4957063;29;20491;-71
2023/02/01 11:11:13;;;;;;;;;;;;;;;0.69;85.85;99627.34;4957842;29;19910;-71
2023/02/01 11:13:39;;;;;;;;;;;;;;;0.68;85.20;99630.91;4965098;29;19917;-79
2023/02/01 11:16:06;;;;;;;;;;;;;;;0.68;85.58;99625.69;4961172;29;19926;-69
2023/02/01 11:18:35;;;;;;;;;;;;;;;0.70;85.66;99623.75;4956611;29;19918;-76
2023/02/01 11:21:01;;;;;;;;;;;;;;;0.80;85.76;99635.13;4956597;29;20008;-73
2023/02/01 11:23:27;;;;;;;;;;;;;;;0.86;85.39;99628.53;4939097;29;20017;-74
2023/02/01 11:25:57;;;;;;;;;;;;;;;0.93;85.66;99630.53;4955467;28;19914;-76
2023/02/01 11:28:29;;;;;;;;;;;;;;;1.04;85.81;99620.94;4956073;29;20001;-70
2023/02/01 11:30:56;;;;;;;;;;;;;;;1.07;85.11;99620.66;4938459;29;19911;-71
2023/02/01 11:33:27;;;;;;;;;;;;;;;1.15;85.82;99612.97;4938500;29;19921;-69
2023/02/01 11:35:53;;;;;;;;;;;;;;;1.12;84.21;99615.84;4955786;29;19910;-69
2023/02/01 11:38:30;;;;;;;;;;;;;;;1.09;84.35;99613.50;4955848;29;19917;-78
2023/02/01 11:40:57;;;;;;;;;;;;;;;1.12;85.36;99613.22;4955886;29;19945;-73
2023/02/01 11:43:27;;;;;;;;;;;;;;;1.18;85.57;99618.81;4955853;29;20234;-71
2023/02/01 11:45:54;;;;;;;;;;;;;;;1.21;84.93;99622.97;4955616;29;19961;-73
2023/02/01 11:48:19;;;;;;;;;;;;;;;1.24;85.56;99617.44;4955440;29;20362;-68
2023/02/01 11:50:50;;;;;;;;;;;;;;;1.26;84.60;99615.53;4955156;29;20017;-70
2023/02/01 11:53:31;;;;;;;;;;;;;;;1.21;82.73;99613.31;4955555;29;20317;-69
2023/02/01 11:56:05;;;;;;;;;;;;;;;1.29;85.47;99623.13;4955741;29;19911;-70
2023/02/01 11:58:42;;;;;;;;;;;;;;;1.36;85.17;99626.88;4955448;29;19961;-74
2023/02/01 12:01:37;;;;;;;;;;;;;;;1.37;84.45;99618.06;4955326;29;19942;-65
2023/02/01 12:04:31;;;;;;;;;;;;;;;1.41;84.50;99626.47;4955306;29;19915;-68
2023/02/01 12:07:03;;;;;;;;;;;;;;;1.41;84.40;99629.94;4902821;29;19911;-67
2023/02/01 12:09:28;;;;;;;;;;;;;;;1.43;85.13;99621.94;4954757;29;19958;-66
2023/02/01 12:12:05;;;;;;;;;;;;;;;1.38;82.88;99617.09;4955241;29;19910;-67
2023/02/01 12:14:31;;;;;;;;;;;;;;;1.38;83.70;99614.47;4955126;29;20013;-68
2023/02/01 12:17:06;;;;;;;;;;;;;;;1.40;83.02;99622.19;4937828;29;19950;-69
2023/02/01 12:19:32;;;;;;;;;;;;;;;1.40;83.93;99617.78;4955012;29;19915;-65
2023/02/01 12:22:20;;;;;;;;;;;;;;;1.45;84.29;99625.28;4954966;29;19917;-73
2023/02/01 12:25:04;;;;;;;;;;;;;;;1.42;83.97;99615.84;4954765;29;19914;-71
2023/02/01 12:27:32;;;;;;;;;;;;;;;1.23;83.30;99608.75;4954811;29;20371;-69
2023/02/01 12:30:10;;;;;;;;;;;;;;;1.20;84.47;99618.69;4937436;29;19910;-68
2023/02/01 12:32:41;;;;;;;;;;;;;;;1.27;85.17;99630.31;4955000;29;19910;-70
2023/02/01 12:35:13;;;;;;;;;;;;;;;1.39;85.74;99636.28;4954751;29;19916;-69
2023/02/01 12:37:40;;;;;;;;;;;;;;;1.43;85.60;99642.91;4954534;28;19972;-66
2023/02/01 12:40:24;;;;;;;;;;;;;;;1.38;85.44;99635.44;4954522;29;20008;-68
2023/02/01 12:43:03;;;;;;;;;;;;;;;1.21;85.43;99639.53;4937371;29;20389;-67
2023/02/01 12:45:32;;;;;;;;;;;;;;;1.15;86.21;99636.56;4954912;29;19932;-69
2023/02/01 12:48:02;;;;;;;;;;;;;;;1.08;85.85;99638.06;4954657;29;20373;-72
2023/02/01 12:50:41;;;;;;;;;;;;;;;1.09;86.26;99635.31;4954566;29;20013;-67
2023/02/01 12:53:13;;;;;;;;;;;;;;;1.12;86.29;99634.22;4954306;29;19910;-78
2023/02/01 12:55:38;;;;;;;;;;;;;;;1.10;86.37;99630.88;4954916;29;19910;-75
2023/02/01 12:58:14;;;;;;;;;;;;;;;1.10;86.52;99636.13;4954696;29;20025;-78
2023/02/01 13:00:43;;;;;;;;;;;;;;;1.06;86.77;99629.50;4921072;29;19915;-79
2023/02/01 13:03:11;;;;;;;;;;;;;;;1.02;87.63;99628.09;4954390;29;19914;-67
2023/02/01 13:05:46;;;;;;;;;;;;;;;0.95;88.08;99637.44;4954384;29;19917;-71
2023/02/01 13:08:19;;;;;;;;;;;;;;;0.86;88.25;99642.47;4955686;29;19914;-69
2023/02/01 13:10:57;;;;;;;;;;;;;;;0.87;89.05;99638.94;4955861;29;19910;-71
2023/02/01 13:13:26;;;;;;;;;;;;;;;0.93;89.21;99638.41;4957020;29;20330;-74
2023/02/01 13:16:04;;;;;;;;;;;;;;;0.97;89.05;99640.75;4957394;29;20322;-71
2023/02/01 13:18:36;;;;;;;;;;;;;;;0.95;89.15;99637.44;4957884;29;19978;-69
2023/02/01 13:21:14;;;;;;;;;;;;;;;0.88;88.87;99637.13;4956025;29;19925;-67
2023/02/01 13:23:40;;;;;;;;;;;;;;;0.85;89.51;99643.44;4955426;29;19957;-67
2023/02/01 13:26:05;;;;;;;;;;;;;;;0.81;89.48;99644.66;4955428;29;19914;-69
2023/02/01 13:28:44;;;;;;;;;;;;;;;0.76;90.18;99633.72;4956668;29;19925;-71
2023/02/01 13:31:28;;;;;;;;;;;;;;;0.73;89.66;99627.91;4955871;29;19918;-68
2023/02/01 13:34:11;;;;;;;;;;;;;;;0.67;90.17;99631.88;4956250;29;19911;-70